PUX weather

El Mirador Airport
Puerto Varas, Los Lagos Region, Chile

Public forecast

Using degrees Celsius for public forecast. Weather courtesy of forecast.io.

METAR (pilot weather report)

Closest report is El Tepual Airport, 8.5 nm (15.8 km) SW. Retrieved 2019/02/16 09:00 UTC (55 minutes ago):

SCTE 160900Z 00000KT 9999 FEW007 11/10 Q1013 NOSIG

TAF (pilot weather forecast)

Closest forecast is El Tepual Airport, 8.5 nm (15.8 km) SW. Retrieved 2019/02/16 06:00 UTC (4 hours ago):

TAF SCTE 160412Z 1606/1706 17006KT 9999 BKN010 TN14/1610Z TX23/1620Z PROB40 TEMPO 1608/1611 17004KT 0800 BCFG BKN004 BECMG 1613/1615 16007KT FEW020 BECMG 1616/1618 CAVOK